createdAt,value
2022-10-11T00:00:33.277Z,85.77
2022-10-11T00:01:33.354Z,85.77
2022-10-11T00:02:33.276Z,85.87
2022-10-11T00:03:33.273Z,86.02
2022-10-11T00:04:33.228Z,86.02
2022-10-11T00:05:33.223Z,86.02
2022-10-11T00:06:33.231Z,86.22
2022-10-11T00:07:33.208Z,86.22
2022-10-11T00:08:33.339Z,86.22
2022-10-11T00:09:33.189Z,86.32
2022-10-11T00:10:33.178Z,86.53
2022-10-11T00:11:33.189Z,86.36
2022-10-11T00:12:33.135Z,86.47
2022-10-11T00:13:33.195Z,86.57
2022-10-11T00:14:33.124Z,87.08
2022-10-11T00:15:33.348Z,86.88
2022-10-11T00:16:33.115Z,86.98
2022-10-11T00:17:33.093Z,87.08
2022-10-11T00:18:33.115Z,87.29
2022-10-11T00:19:33.052Z,87.19
2022-10-11T00:20:33.059Z,87.29
2022-10-11T00:21:33.084Z,87.23
2022-10-11T00:22:33.047Z,88.06
2022-10-11T00:23:33.038Z,88.16
2022-10-11T00:24:33.018Z,88.06
2022-10-11T00:25:33.193Z,88.37
2022-10-11T00:26:33.252Z,88.68
2022-10-11T00:27:33.003Z,88.37
2022-10-11T00:28:33.011Z,88.26
2022-10-11T00:29:32.975Z,88.31
2022-10-11T00:30:32.945Z,88.61
2022-10-11T00:31:35.674Z,88.82
2022-10-11T00:32:33.012Z,88.71
2022-10-11T00:33:32.934Z,88.92
2022-10-11T00:34:32.926Z,89.38
2022-10-11T00:35:32.892Z,89.89
2022-10-11T00:36:32.875Z,89.89
2022-10-11T00:37:32.921Z,89.48
2022-10-11T00:38:32.911Z,89.48
2022-10-11T00:39:32.857Z,89.48
2022-10-11T00:40:32.946Z,89.59
2022-10-11T00:41:32.834Z,89.59
2022-10-11T00:42:32.841Z,89.94
2022-10-11T00:43:32.817Z,90.14
2022-10-11T00:44:32.845Z,90.14
2022-10-11T00:45:32.869Z,90.56
2022-10-11T00:46:32.784Z,90.80
2022-10-11T00:47:32.743Z,91.01
2022-10-11T00:48:32.745Z,90.91
2022-10-11T00:49:32.762Z,91.11
2022-10-11T00:50:32.730Z,91.01
2022-10-11T00:51:32.765Z,91.01
2022-10-11T00:52:32.691Z,90.91
2022-10-11T00:53:32.692Z,90.04
2022-10-11T00:54:32.808Z,89.52
2022-10-11T00:55:32.659Z,89.62
2022-10-11T00:56:32.681Z,89.67
2022-10-11T00:57:32.646Z,89.87
2022-10-11T00:58:32.642Z,89.62
2022-10-11T00:59:32.660Z,89.01
2022-10-11T01:00:32.615Z,88.14
2022-10-11T01:01:32.718Z,88.04
2022-10-11T01:02:32.643Z,87.93
2022-10-11T01:03:32.567Z,87.62
2022-10-11T01:04:32.633Z,87.21
2022-10-11T01:05:32.538Z,87.10
2022-10-11T01:06:33.250Z,87.83
2022-10-11T01:07:32.567Z,87.73
2022-10-11T01:08:32.581Z,87.93
2022-10-11T01:09:32.513Z,87.41
2022-10-11T01:10:32.573Z,87.46
2022-10-11T01:11:32.549Z,87.87
2022-10-11T01:12:32.479Z,88.39
2022-10-11T01:13:32.479Z,88.07
2022-10-11T01:14:32.526Z,87.91
2022-10-11T01:15:32.450Z,87.91
2022-10-11T01:16:32.651Z,88.32
2022-10-11T01:17:32.452Z,88.64
2022-10-11T01:18:32.400Z,88.53
2022-10-11T01:19:32.413Z,88.67
2022-10-11T01:20:32.403Z,89.50
2022-10-11T01:21:32.441Z,89.61
2022-10-11T01:22:32.414Z,89.61
2022-10-11T01:23:32.374Z,89.29
2022-10-11T01:24:32.341Z,89.09
2022-10-11T01:25:32.331Z,89.61
2022-10-11T01:26:32.350Z,89.61
2022-10-11T01:27:32.327Z,89.71
2022-10-11T01:28:32.366Z,89.92
2022-10-11T01:29:32.293Z,89.50
2022-10-11T01:30:32.266Z,89.23
2022-10-11T01:31:32.314Z,90.06
2022-10-11T01:32:32.273Z,90.37
2022-10-11T01:33:32.252Z,90.52
2022-10-11T01:34:32.235Z,90.52
2022-10-11T01:35:32.227Z,90.52
2022-10-11T01:36:32.238Z,91.14
2022-10-11T01:37:32.210Z,91.03
2022-10-11T01:38:32.203Z,90.66
2022-10-11T01:39:32.162Z,90.97
2022-10-11T01:40:32.165Z,90.97
2022-10-11T01:41:32.181Z,91.80
2022-10-11T01:42:32.172Z,91.70
2022-10-11T01:43:32.145Z,91.70
2022-10-11T01:44:32.115Z,91.60
2022-10-11T01:45:32.129Z,91.49
2022-10-11T01:46:32.095Z,91.49
2022-10-11T01:47:32.096Z,91.70
2022-10-11T01:48:32.097Z,91.85
2022-10-11T01:49:32.102Z,91.85
2022-10-11T01:50:32.061Z,92.16
2022-10-11T01:51:32.057Z,92.47
2022-10-11T01:52:32.050Z,91.95
2022-10-11T01:53:32.046Z,92.05
2022-10-11T01:54:56.445Z,92.36
2022-10-11T01:55:32.021Z,91.53
2022-10-11T01:56:32.000Z,92.26
2022-10-11T01:57:31.996Z,92.32
2022-10-11T01:58:31.968Z,91.95
2022-10-11T01:59:31.987Z,91.95
2022-10-11T02:00:31.955Z,92.05
2022-10-11T02:01:31.999Z,92.16
2022-10-11T02:02:31.956Z,92.57
2022-10-11T02:03:31.897Z,92.98
2022-10-11T02:04:31.936Z,93.33
2022-10-11T02:05:31.897Z,93.44
2022-10-11T02:06:31.871Z,93.96
2022-10-11T02:07:31.866Z,93.96
2022-10-11T02:08:31.866Z,94.11
2022-10-11T02:09:31.895Z,94.53
2022-10-11T02:10:31.842Z,94.78
2022-10-11T02:11:31.837Z,94.88
2022-10-11T02:12:31.802Z,94.88
2022-10-11T02:13:31.814Z,94.98
2022-10-11T02:14:31.819Z,95.09
2022-10-11T02:15:31.803Z,95.23
2022-10-11T02:16:31.776Z,95.13
2022-10-11T02:17:31.762Z,95.03
2022-10-11T02:18:31.743Z,94.92
2022-10-11T02:19:31.743Z,95.13
2022-10-11T02:20:31.763Z,95.13
2022-10-11T02:21:31.749Z,95.44
2022-10-11T02:22:31.697Z,95.75
2022-10-11T02:23:31.728Z,95.44
2022-10-11T02:24:31.690Z,95.13
2022-10-11T02:25:31.682Z,95.34
2022-10-11T02:26:31.655Z,95.07
2022-10-11T02:27:31.806Z,95.07
2022-10-11T02:28:31.836Z,95.17
2022-10-11T02:29:31.618Z,95.07
2022-10-11T02:30:31.627Z,95.07
2022-10-11T02:31:31.643Z,94.86
2022-10-11T02:32:31.592Z,94.86
2022-10-11T02:33:31.574Z,94.96
2022-10-11T02:34:31.598Z,95.48
2022-10-11T02:35:31.594Z,96.00
2022-10-11T02:36:31.565Z,96.21
2022-10-11T02:37:31.558Z,96.21
2022-10-11T02:38:31.534Z,96.52
2022-10-11T02:39:31.543Z,96.83
2022-10-11T02:40:31.514Z,96.78
2022-10-11T02:41:31.529Z,96.98
2022-10-11T02:42:31.485Z,97.30
2022-10-11T02:43:31.481Z,97.25
2022-10-11T02:44:31.472Z,97.30
2022-10-11T02:45:31.466Z,97.19
2022-10-11T02:46:31.440Z,97.19
2022-10-11T02:47:31.435Z,97.19
2022-10-11T02:48:31.421Z,97.19
2022-10-11T02:49:31.439Z,96.88
2022-10-11T02:50:31.433Z,96.57
2022-10-11T02:51:31.407Z,96.41
2022-10-11T02:52:31.416Z,96.30
2022-10-11T02:53:31.351Z,96.30
2022-10-11T02:54:31.380Z,96.51
2022-10-11T02:55:31.345Z,96.61
2022-10-11T02:56:31.326Z,96.61
2022-10-11T02:57:31.313Z,97.07
2022-10-11T02:58:31.304Z,96.97
2022-10-11T02:59:31.319Z,97.17
2022-10-11T03:00:31.327Z,97.49
2022-10-11T03:01:31.355Z,97.49
2022-10-11T03:02:31.256Z,97.49
2022-10-11T03:03:31.287Z,97.44
2022-10-11T03:04:31.281Z,97.24
2022-10-11T03:05:31.226Z,97.44
2022-10-11T03:06:31.247Z,97.55
2022-10-11T03:07:31.191Z,97.34
2022-10-11T03:08:31.224Z,97.55
2022-10-11T03:09:31.248Z,97.34
2022-10-11T03:10:32.141Z,97.24
2022-10-11T03:11:31.169Z,97.13
2022-10-11T03:12:31.163Z,97.24
2022-10-11T03:13:31.137Z,97.49
2022-10-11T03:14:31.198Z,97.55
2022-10-11T03:15:31.143Z,97.34
2022-10-11T03:16:31.101Z,97.03
2022-10-11T03:17:36.528Z,96.92
2022-10-11T03:18:31.106Z,96.92
2022-10-11T03:19:31.076Z,96.97
2022-10-11T03:20:31.080Z,96.82
2022-10-11T03:21:31.103Z,96.82
2022-10-11T03:22:31.055Z,97.24
2022-10-11T03:23:31.041Z,97.13
2022-10-11T03:24:31.035Z,96.92
2022-10-11T03:25:31.014Z,96.51
2022-10-11T03:26:31.021Z,96.25
2022-10-11T03:27:30.984Z,96.36
2022-10-11T03:28:31.077Z,96.15
2022-10-11T03:29:30.987Z,95.32
2022-10-11T03:30:31.015Z,94.55
2022-10-11T03:31:30.937Z,93.37
2022-10-11T03:32:30.931Z,92.18
2022-10-11T03:33:30.925Z,91.72
2022-10-11T03:34:30.929Z,88.36
2022-10-11T03:35:30.891Z,87.38
2022-10-11T03:36:30.958Z,86.72
2022-10-11T03:37:30.868Z,85.79
2022-10-11T03:38:30.878Z,84.92
2022-10-11T03:39:30.838Z,83.33
2022-10-11T03:40:30.846Z,82.05
2022-10-11T03:41:30.826Z,81.09
2022-10-11T03:42:30.870Z,80.57
2022-10-11T03:43:30.828Z,79.74
2022-10-11T03:44:30.820Z,79.70
2022-10-11T03:45:30.777Z,78.88
2022-10-11T03:46:30.773Z,78.25
2022-10-11T03:47:30.797Z,78.36
2022-10-11T03:48:30.751Z,78.77
2022-10-11T03:49:30.747Z,78.88
2022-10-11T03:50:30.721Z,78.77
2022-10-11T03:51:30.733Z,78.36
2022-10-11T03:52:30.699Z,78.05
2022-10-11T03:53:30.705Z,77.94
2022-10-11T03:54:30.714Z,78.15
2022-10-11T03:55:30.693Z,78.46
2022-10-11T03:56:30.799Z,78.36
2022-10-11T03:57:30.632Z,78.67
2022-10-11T03:58:30.655Z,78.67
2022-10-11T03:59:30.676Z,79.02
2022-10-11T04:00:30.649Z,79.33
2022-10-11T04:01:30.645Z,79.33
2022-10-11T04:02:30.603Z,79.12
2022-10-11T04:03:30.623Z,79.12
2022-10-11T04:04:30.581Z,79.16
2022-10-11T04:05:30.570Z,78.64
2022-10-11T04:06:30.560Z,78.50
2022-10-11T04:07:30.540Z,78.53
2022-10-11T04:08:30.533Z,78.53
2022-10-11T04:09:30.547Z,78.85
2022-10-11T04:10:30.517Z,79.05
2022-10-11T04:11:30.478Z,79.26
2022-10-11T04:12:30.483Z,79.40
2022-10-11T04:13:30.499Z,79.50
2022-10-11T04:14:30.479Z,79.81
2022-10-11T04:15:30.467Z,79.91
2022-10-11T04:16:30.461Z,80.22
2022-10-11T04:17:30.438Z,80.54
2022-10-11T04:18:30.410Z,80.68
2022-10-11T04:19:30.434Z,80.99
2022-10-11T04:20:30.386Z,80.68
2022-10-11T04:21:30.426Z,79.44
2022-10-11T04:22:30.398Z,79.64
2022-10-11T04:23:30.368Z,77.33
2022-10-11T04:24:30.349Z,77.22
2022-10-11T04:25:31.165Z,75.53
2022-10-11T04:26:30.351Z,74.81
2022-10-11T04:27:30.331Z,74.81
2022-10-11T04:28:30.373Z,74.81
2022-10-11T04:29:32.775Z,74.60
2022-10-11T04:30:30.282Z,74.40
2022-10-11T04:31:30.293Z,74.71
2022-10-11T04:32:30.282Z,74.81
2022-10-11T04:33:30.245Z,74.29
2022-10-11T04:34:30.238Z,74.40
2022-10-11T04:35:30.255Z,73.88
2022-10-11T04:36:30.315Z,73.22
2022-10-11T04:37:30.227Z,72.60
2022-10-11T04:38:30.198Z,72.60
2022-10-11T04:39:30.205Z,73.33
2022-10-11T04:40:30.203Z,72.91
2022-10-11T04:41:30.175Z,72.39
2022-10-11T04:42:30.156Z,72.60
2022-10-11T04:43:30.136Z,72.81
2022-10-11T04:44:30.139Z,72.81
2022-10-11T04:45:30.135Z,72.71
2022-10-11T04:46:30.115Z,72.29
2022-10-11T04:47:30.123Z,72.81
2022-10-11T04:48:30.106Z,72.71
2022-10-11T04:49:30.083Z,73.02
2022-10-11T04:50:30.085Z,73.57
2022-10-11T04:51:30.060Z,73.77
2022-10-11T04:52:30.046Z,73.98
2022-10-11T04:53:30.062Z,74.29
2022-10-11T04:54:30.043Z,73.88
2022-10-11T04:55:30.041Z,74.08
2022-10-11T04:56:30.818Z,73.67
2022-10-11T04:57:30.029Z,73.77
2022-10-11T04:58:29.996Z,74.08
2022-10-11T04:59:30.002Z,73.77
2022-10-11T05:00:29.972Z,74.29
2022-10-11T05:01:29.969Z,74.71
2022-10-11T05:02:29.964Z,74.08
2022-10-11T05:03:29.923Z,74.19
2022-10-11T05:04:29.938Z,74.08
2022-10-11T05:05:29.902Z,73.15
2022-10-11T05:06:29.894Z,73.43
2022-10-11T05:07:29.874Z,73.54
2022-10-11T05:08:29.912Z,73.88
2022-10-11T05:09:29.881Z,74.19
2022-10-11T05:10:29.868Z,73.88
2022-10-11T05:11:29.968Z,73.33
2022-10-11T05:12:29.812Z,73.54
2022-10-11T05:13:29.843Z,73.94
2022-10-11T05:14:29.797Z,73.94
2022-10-11T05:15:29.809Z,73.94
2022-10-11T05:16:29.786Z,73.54
2022-10-11T05:17:29.766Z,73.54
2022-10-11T05:18:29.756Z,73.33
2022-10-11T05:19:29.767Z,73.54
2022-10-11T05:20:30.747Z,74.26
2022-10-11T05:21:29.744Z,74.26
2022-10-11T05:22:29.740Z,74.15
2022-10-11T05:23:29.703Z,73.84
2022-10-11T05:24:29.696Z,73.94
2022-10-11T05:25:29.722Z,74.26
2022-10-11T05:26:29.694Z,74.15
2022-10-11T05:27:30.716Z,74.46
2022-10-11T05:28:29.721Z,74.77
2022-10-11T05:29:29.654Z,74.77
2022-10-11T05:30:29.648Z,74.36
2022-10-11T05:31:29.617Z,74.46
2022-10-11T05:32:29.640Z,74.88
2022-10-11T05:33:29.645Z,75.09
2022-10-11T05:34:29.613Z,75.09
2022-10-11T05:35:29.569Z,74.67
2022-10-11T05:36:29.564Z,74.36
2022-10-11T05:37:29.612Z,74.77
2022-10-11T05:38:29.533Z,74.88
2022-10-11T05:39:29.628Z,75.09
2022-10-11T05:40:29.529Z,74.77
2022-10-11T05:41:29.558Z,74.77
2022-10-11T05:42:29.498Z,74.98
2022-10-11T05:43:29.485Z,74.88
2022-10-11T05:44:29.458Z,75.09
2022-10-11T05:45:29.463Z,75.70
2022-10-11T05:46:29.502Z,74.77
2022-10-11T05:47:29.457Z,75.09
2022-10-11T05:48:29.464Z,74.74
2022-10-11T05:49:29.438Z,75.05
2022-10-11T05:50:29.395Z,74.95
2022-10-11T05:51:29.394Z,75.05
2022-10-11T05:52:29.403Z,75.19
2022-10-11T05:53:29.353Z,75.29
2022-10-11T05:54:29.402Z,75.70
2022-10-11T05:55:29.396Z,76.22
2022-10-11T05:56:29.328Z,75.91
2022-10-11T05:57:29.324Z,76.12
2022-10-11T05:58:29.325Z,76.32
2022-10-11T05:59:29.345Z,76.43
2022-10-11T06:00:29.324Z,76.67
2022-10-11T06:01:29.420Z,77.19
2022-10-11T06:02:29.268Z,77.09
2022-10-11T06:03:29.354Z,77.39
2022-10-11T06:04:29.245Z,77.39
2022-10-11T06:05:29.291Z,77.39
2022-10-11T06:06:29.238Z,77.70
2022-10-11T06:07:29.291Z,77.50
2022-10-11T06:08:29.187Z,77.60
2022-10-11T06:09:29.735Z,77.81
2022-10-11T06:10:29.190Z,77.81
2022-10-11T06:11:29.165Z,77.50
2022-10-11T06:12:29.151Z,77.81
2022-10-11T06:13:29.188Z,77.70
2022-10-11T06:14:29.155Z,78.02
2022-10-11T06:15:29.128Z,76.67
2022-10-11T06:16:29.148Z,76.46
2022-10-11T06:17:29.106Z,76.57
2022-10-11T06:18:29.099Z,76.78
2022-10-11T06:19:29.097Z,76.57
2022-10-11T06:20:29.058Z,76.88
2022-10-11T06:21:29.117Z,77.19
2022-10-11T06:22:29.076Z,76.78
2022-10-11T06:23:29.045Z,76.78
2022-10-11T06:24:29.017Z,76.78
2022-10-11T06:25:29.057Z,76.57
2022-10-11T06:26:29.017Z,76.78
2022-10-11T06:27:28.982Z,76.88
2022-10-11T06:28:29.076Z,76.98
2022-10-11T06:29:28.976Z,76.98
2022-10-11T06:30:28.976Z,76.98
2022-10-11T06:31:29.016Z,76.98
2022-10-11T06:32:28.944Z,77.29
2022-10-11T06:33:28.968Z,77.29
2022-10-11T06:34:28.928Z,77.19
2022-10-11T06:35:28.912Z,77.19
2022-10-11T06:36:28.891Z,77.60
2022-10-11T06:37:28.918Z,77.81
2022-10-11T06:38:28.867Z,77.60
2022-10-11T06:39:28.864Z,77.81
2022-10-11T06:40:28.961Z,77.81
2022-10-11T06:41:28.860Z,77.91
2022-10-11T06:42:28.832Z,78.22
2022-10-11T06:43:28.855Z,78.22
2022-10-11T06:44:28.883Z,78.12
2022-10-11T06:45:28.805Z,78.33
2022-10-11T06:46:28.782Z,78.33
2022-10-11T06:47:28.820Z,78.12
2022-10-11T06:48:28.765Z,77.81
2022-10-11T06:49:28.807Z,77.56
2022-10-11T06:50:54.425Z,77.56
2022-10-11T06:51:28.758Z,77.26
2022-10-11T06:52:28.792Z,77.05
2022-10-11T06:53:28.706Z,77.26
2022-10-11T06:54:28.721Z,77.22
2022-10-11T06:55:28.781Z,77.43
2022-10-11T06:56:28.660Z,77.22
2022-10-11T06:57:28.683Z,77.53
2022-10-11T06:58:28.710Z,77.64
2022-10-11T06:59:28.650Z,77.53
2022-10-11T07:00:28.633Z,77.33
2022-10-11T07:01:28.752Z,76.81
2022-10-11T07:02:28.613Z,77.01
2022-10-11T07:03:28.593Z,76.56
2022-10-11T07:04:28.623Z,75.01
2022-10-11T07:05:28.587Z,74.40
2022-10-11T07:06:28.564Z,74.40
2022-10-11T07:07:28.601Z,74.19
2022-10-11T07:08:28.572Z,74.05
2022-10-11T07:09:28.515Z,74.05
2022-10-11T07:10:28.644Z,74.46
2022-10-11T07:11:28.522Z,73.43
2022-10-11T07:12:28.498Z,73.85
2022-10-11T07:13:28.486Z,73.64
2022-10-11T07:14:28.501Z,73.74
2022-10-11T07:15:28.494Z,73.74
2022-10-11T07:16:28.486Z,73.54
2022-10-11T07:17:28.458Z,73.95
2022-10-11T07:18:29.309Z,73.22
2022-10-11T07:19:28.424Z,73.22
2022-10-11T07:20:28.419Z,72.95
2022-10-11T07:21:28.477Z,72.81
2022-10-11T07:22:28.434Z,72.95
2022-10-11T07:23:28.376Z,72.95
2022-10-11T07:24:28.398Z,73.05
2022-10-11T07:25:28.343Z,73.26
2022-10-11T07:26:29.208Z,73.47
2022-10-11T07:27:28.350Z,73.57
2022-10-11T07:28:28.461Z,73.88
2022-10-11T07:29:28.308Z,73.77
2022-10-11T07:30:28.291Z,74.40
2022-10-11T07:31:28.310Z,74.53
2022-10-11T07:32:28.333Z,74.12
2022-10-11T07:33:28.282Z,74.12
2022-10-11T07:34:28.264Z,74.12
2022-10-11T07:35:28.263Z,74.22
2022-10-11T07:36:28.268Z,74.12
2022-10-11T07:37:28.210Z,74.12
2022-10-11T07:38:28.223Z,73.91
2022-10-11T07:39:28.195Z,73.71
2022-10-11T07:40:28.247Z,73.77
2022-10-11T07:41:28.189Z,73.77
2022-10-11T07:42:28.166Z,73.88
2022-10-11T07:43:28.195Z,73.85
2022-10-11T07:44:28.159Z,74.15
2022-10-11T07:45:28.138Z,73.64
2022-10-11T07:46:28.117Z,72.91
2022-10-11T07:47:28.146Z,72.91
2022-10-11T07:48:28.140Z,72.78
2022-10-11T07:49:28.093Z,72.19
2022-10-11T07:50:28.070Z,71.95
2022-10-11T07:51:28.098Z,71.95
2022-10-11T07:52:28.071Z,71.64
2022-10-11T07:53:28.071Z,71.33
2022-10-11T07:54:28.068Z,71.33
2022-10-11T07:55:28.045Z,71.44
2022-10-11T07:56:28.042Z,71.64
2022-10-11T07:57:27.998Z,71.71
2022-10-11T07:58:27.988Z,71.33
2022-10-11T07:59:28.000Z,71.75
2022-10-11T08:00:27.992Z,71.75
2022-10-11T08:01:28.065Z,71.75
2022-10-11T08:02:28.013Z,71.26
2022-10-11T08:03:27.941Z,71.47
2022-10-11T08:04:27.975Z,71.98
2022-10-11T08:05:27.911Z,71.88
2022-10-11T08:06:27.911Z,72.19
2022-10-11T08:07:27.919Z,71.98
2022-10-11T08:08:27.875Z,71.98
2022-10-11T08:09:27.909Z,71.98
2022-10-11T08:10:27.858Z,71.26
2022-10-11T08:11:27.855Z,71.47
2022-10-11T08:12:27.836Z,71.57
2022-10-11T08:13:27.831Z,71.67
2022-10-11T08:14:27.830Z,71.16
2022-10-11T08:15:27.840Z,70.75
2022-10-11T08:16:27.806Z,70.75
2022-10-11T08:17:27.842Z,70.72
2022-10-11T08:18:27.789Z,70.61
2022-10-11T08:19:27.797Z,70.40
2022-10-11T08:20:27.767Z,70.09
2022-10-11T08:21:27.737Z,69.78
2022-10-11T08:22:27.766Z,69.75
2022-10-11T08:23:27.722Z,69.85
2022-10-11T08:24:27.706Z,69.89
2022-10-11T08:25:27.715Z,70.20
2022-10-11T08:26:27.690Z,70.47
2022-10-11T08:27:27.665Z,70.57
2022-10-11T08:28:27.672Z,70.06
2022-10-11T08:29:27.638Z,70.17
2022-10-11T08:30:27.667Z,70.37
2022-10-11T08:31:27.626Z,70.06
2022-10-11T08:32:27.664Z,70.23
2022-10-11T08:33:27.601Z,69.93
2022-10-11T08:34:27.587Z,69.72
2022-10-11T08:35:27.573Z,69.72
2022-10-11T08:36:27.577Z,69.75
2022-10-11T08:37:27.597Z,69.65
2022-10-11T08:38:27.553Z,70.27
2022-10-11T08:39:27.523Z,69.85
2022-10-11T08:40:30.481Z,69.75
2022-10-11T08:41:27.525Z,69.34
2022-10-11T08:42:27.538Z,69.65
2022-10-11T08:43:27.523Z,69.96
2022-10-11T08:44:27.460Z,70.17
2022-10-11T08:45:27.489Z,70.47
2022-10-11T08:46:27.463Z,70.27
2022-10-11T08:47:27.479Z,70.57
2022-10-11T08:48:27.429Z,70.30
2022-10-11T08:49:27.425Z,70.72
2022-10-11T08:50:27.428Z,70.72
2022-10-11T08:51:27.389Z,70.82
2022-10-11T08:52:27.385Z,70.61
2022-10-11T08:53:28.361Z,69.99
2022-10-11T08:54:27.362Z,70.61
2022-10-11T08:55:27.391Z,70.72
2022-10-11T08:56:27.354Z,70.61
2022-10-11T08:57:27.329Z,70.72
2022-10-11T08:58:27.404Z,70.82
2022-10-11T08:59:27.318Z,70.92
2022-10-11T09:00:27.297Z,69.99
2022-10-11T09:01:27.340Z,69.78
2022-10-11T09:02:38.978Z,69.48
2022-10-11T09:03:27.272Z,69.99
2022-10-11T09:04:27.272Z,69.99
2022-10-11T09:05:27.258Z,70.03
2022-10-11T09:06:27.231Z,70.23
2022-10-11T09:07:27.210Z,70.03
2022-10-11T09:08:27.324Z,70.33
2022-10-11T09:09:27.218Z,70.85
2022-10-11T09:10:27.192Z,71.19
2022-10-11T09:11:27.183Z,71.40
2022-10-11T09:12:31.960Z,71.71
2022-10-11T09:13:27.203Z,72.22
2022-10-11T09:14:27.156Z,72.02
2022-10-11T09:15:27.153Z,72.12
2022-10-11T09:16:27.147Z,72.02
2022-10-11T09:17:27.163Z,72.33
2022-10-11T09:18:27.091Z,72.53
2022-10-11T09:19:27.104Z,71.92
2022-10-11T09:20:27.102Z,71.50
2022-10-11T09:21:27.072Z,71.30
2022-10-11T09:22:30.631Z,71.09
2022-10-11T09:23:27.085Z,71.19
2022-10-11T09:24:27.062Z,71.09
2022-10-11T09:25:27.026Z,71.19
2022-10-11T09:26:27.058Z,70.88
2022-10-11T09:27:50.235Z,71.09
2022-10-11T09:28:27.115Z,71.30
2022-10-11T09:29:26.959Z,71.30
2022-10-11T09:30:27.172Z,71.40
2022-10-11T09:31:27.070Z,71.26
2022-10-11T09:32:26.942Z,70.85
2022-10-11T09:33:26.928Z,70.64
2022-10-11T09:34:26.927Z,70.03
2022-10-11T09:35:26.909Z,70.03
2022-10-11T09:36:26.972Z,70.03
2022-10-11T09:37:26.907Z,69.78
2022-10-11T09:38:26.872Z,69.78
2022-10-11T09:39:26.885Z,69.37
2022-10-11T09:40:26.854Z,69.48
2022-10-11T09:41:26.956Z,68.54
2022-10-11T09:42:26.868Z,68.06
2022-10-11T09:43:27.570Z,68.48
2022-10-11T09:44:26.840Z,68.65
2022-10-11T09:45:26.804Z,68.75
2022-10-11T09:46:26.904Z,68.62
2022-10-11T09:47:26.792Z,67.79
2022-10-11T09:48:26.794Z,67.82
2022-10-11T09:49:26.749Z,68.10
2022-10-11T09:50:26.735Z,67.58
2022-10-11T09:51:26.728Z,67.58
2022-10-11T09:52:26.755Z,67.45
2022-10-11T09:53:26.696Z,67.24
2022-10-11T09:54:26.689Z,66.31
2022-10-11T09:55:26.684Z,66.01
2022-10-11T09:56:26.692Z,65.91
2022-10-11T09:57:26.653Z,66.31
2022-10-11T09:58:26.714Z,66.83
2022-10-11T09:59:26.642Z,66.94
2022-10-11T10:00:26.632Z,65.59
2022-10-11T10:01:26.739Z,65.18
2022-10-11T10:02:26.611Z,65.39
2022-10-11T10:03:26.598Z,65.28
2022-10-11T10:04:26.609Z,65.59
2022-10-11T10:05:26.571Z,66.11
2022-10-11T10:06:26.576Z,66.01
2022-10-11T10:07:26.581Z,66.01
2022-10-11T10:08:26.562Z,65.91
2022-10-11T10:09:26.536Z,65.80
2022-10-11T10:10:26.568Z,66.01
2022-10-11T10:11:26.515Z,66.08
2022-10-11T10:12:26.496Z,66.01
2022-10-11T10:13:26.566Z,66.21
2022-10-11T10:14:26.476Z,66.28
2022-10-11T10:15:26.491Z,65.67
2022-10-11T10:16:26.477Z,65.15
2022-10-11T10:17:26.436Z,65.36
2022-10-11T10:18:26.432Z,65.18
2022-10-11T10:19:26.414Z,65.39
2022-10-11T10:20:26.392Z,65.59
2022-10-11T10:21:26.392Z,65.80
2022-10-11T10:22:26.405Z,65.49
2022-10-11T10:23:26.423Z,65.67
2022-10-11T10:24:26.388Z,65.56
2022-10-11T10:25:26.334Z,64.84
2022-10-11T10:26:26.353Z,64.64
2022-10-11T10:27:26.349Z,64.95
2022-10-11T10:28:26.404Z,64.53
2022-10-11T10:29:26.319Z,64.22
2022-10-11T10:30:26.305Z,64.77
2022-10-11T10:31:26.296Z,65.18
2022-10-11T10:32:27.980Z,65.28
2022-10-11T10:33:26.316Z,65.28
2022-10-11T10:34:26.263Z,65.28
2022-10-11T10:35:26.278Z,65.08
2022-10-11T10:36:26.237Z,64.98
2022-10-11T10:37:26.286Z,65.70
2022-10-11T10:38:26.910Z,65.70
2022-10-11T10:39:26.243Z,65.88
2022-10-11T10:40:26.195Z,65.25
2022-10-11T10:41:26.199Z,65.70
2022-10-11T10:42:26.177Z,65.77
2022-10-11T10:43:26.144Z,65.88
2022-10-11T10:44:26.170Z,65.56
2022-10-11T10:45:26.198Z,65.33
2022-10-11T10:46:26.118Z,64.84
2022-10-11T10:47:26.111Z,65.25
2022-10-11T10:48:26.097Z,65.22
2022-10-11T10:49:52.615Z,65.43
2022-10-11T10:50:26.108Z,64.92
2022-10-11T10:51:26.094Z,64.92
2022-10-11T10:52:26.072Z,64.81
2022-10-11T10:53:26.058Z,64.71
2022-10-11T10:54:26.067Z,64.29
2022-10-11T10:55:26.030Z,64.17
2022-10-11T10:56:26.002Z,64.34
2022-10-11T10:57:25.993Z,63.82
2022-10-11T10:58:26.016Z,63.10
2022-10-11T10:59:25.971Z,63.31
2022-10-11T11:00:25.995Z,62.90
2022-10-11T11:01:26.012Z,62.93
2022-10-11T11:02:40.160Z,62.62
2022-10-11T11:03:25.953Z,62.82
2022-10-11T11:04:25.935Z,63.24
2022-10-11T11:05:25.933Z,63.54
2022-10-11T11:06:25.909Z,63.45
2022-10-11T11:07:25.915Z,63.85
2022-10-11T11:08:25.878Z,63.65
2022-10-11T11:09:25.881Z,63.68
2022-10-11T11:10:25.864Z,64.19
2022-10-11T11:11:25.834Z,64.61
2022-10-11T11:12:25.847Z,64.92
2022-10-11T11:13:25.943Z,65.25
2022-10-11T11:14:25.855Z,65.05
2022-10-11T11:15:32.005Z,65.05
2022-10-11T11:16:25.787Z,65.15
2022-10-11T11:17:25.782Z,65.36
2022-10-11T11:18:25.759Z,65.77
2022-10-11T11:19:25.809Z,65.77
2022-10-11T11:20:25.747Z,66.08
2022-10-11T11:21:25.739Z,66.28
2022-10-11T11:22:29.168Z,66.36
2022-10-11T11:23:25.866Z,66.67
2022-10-11T11:24:25.711Z,66.56
2022-10-11T11:25:25.714Z,65.74
2022-10-11T11:26:25.700Z,65.74
2022-10-11T11:27:25.731Z,65.95
2022-10-11T11:28:25.823Z,66.36
2022-10-11T11:29:25.641Z,65.53
2022-10-11T11:30:25.647Z,65.74
2022-10-11T11:31:25.640Z,65.43
2022-10-11T11:32:25.599Z,65.95
2022-10-11T11:33:25.616Z,66.25
2022-10-11T11:34:25.676Z,66.36
2022-10-11T11:35:25.637Z,65.64
2022-10-11T11:36:25.640Z,66.05
2022-10-11T11:37:25.547Z,65.64
2022-10-11T11:38:29.417Z,65.98
2022-10-11T11:39:25.537Z,65.98
2022-10-11T11:40:25.520Z,65.88
2022-10-11T11:41:25.514Z,66.18
2022-10-11T11:42:25.534Z,66.80
2022-10-11T11:43:25.484Z,67.11
2022-10-11T11:44:27.564Z,66.49
2022-10-11T11:45:25.472Z,67.21
2022-10-11T11:46:25.469Z,67.32
2022-10-11T11:47:25.480Z,67.14
2022-10-11T11:48:25.494Z,67.35
2022-10-11T11:49:25.418Z,67.76
2022-10-11T11:50:25.422Z,67.97
2022-10-11T11:51:29.009Z,68.07
2022-10-11T11:52:25.412Z,68.14
2022-10-11T11:53:25.382Z,68.04
2022-10-11T11:54:25.375Z,67.73
2022-10-11T11:55:25.350Z,67.32
2022-10-11T11:56:25.348Z,66.91
2022-10-11T11:57:25.432Z,66.39
2022-10-11T11:58:25.323Z,66.56
2022-10-11T11:59:25.300Z,66.56
2022-10-11T12:00:25.332Z,66.77
2022-10-11T12:01:30.249Z,66.64
2022-10-11T12:02:25.327Z,66.22
2022-10-11T12:03:25.307Z,65.81
2022-10-11T12:04:25.240Z,65.30
2022-10-11T12:05:25.246Z,64.78
2022-10-11T12:06:25.286Z,65.40
2022-10-11T12:07:25.246Z,65.37
2022-10-11T12:08:25.274Z,65.78
2022-10-11T12:09:26.059Z,65.47
2022-10-11T12:10:25.176Z,65.47
2022-10-11T12:11:25.178Z,65.68
2022-10-11T12:12:26.115Z,65.50
2022-10-11T12:13:29.723Z,66.02
2022-10-11T12:14:25.140Z,65.81
2022-10-11T12:15:25.133Z,66.22
2022-10-11T12:16:25.107Z,66.74
2022-10-11T12:17:25.135Z,66.64
2022-10-11T12:18:25.105Z,67.05
2022-10-11T12:19:25.136Z,66.53
2022-10-11T12:20:25.129Z,66.22
2022-10-11T12:21:25.074Z,66.22
2022-10-11T12:22:25.048Z,66.22
2022-10-11T12:23:25.080Z,66.74
2022-10-11T12:24:25.050Z,66.64
2022-10-11T12:25:25.029Z,66.22
2022-10-11T12:26:25.048Z,65.99
2022-10-11T12:27:25.075Z,66.40
2022-10-11T12:28:25.009Z,66.40
2022-10-11T12:29:28.670Z,65.58
2022-10-11T12:30:24.974Z,65.78
2022-10-11T12:31:25.004Z,64.99
2022-10-11T12:32:24.950Z,64.99
2022-10-11T12:33:24.913Z,65.40
2022-10-11T12:34:24.945Z,65.19
2022-10-11T12:35:24.893Z,65.30
2022-10-11T12:36:24.903Z,64.68
2022-10-11T12:37:24.899Z,65.09
2022-10-11T12:38:24.935Z,65.19
2022-10-11T12:39:24.848Z,65.50
2022-10-11T12:40:24.843Z,65.92
2022-10-11T12:41:24.851Z,65.92
2022-10-11T12:42:24.862Z,66.40
2022-10-11T12:43:24.827Z,66.53
2022-10-11T12:44:24.800Z,66.64
2022-10-11T12:45:24.836Z,66.71
2022-10-11T12:46:24.797Z,66.30
2022-10-11T12:47:24.767Z,66.50
2022-10-11T12:48:27.445Z,67.36
2022-10-11T12:49:24.756Z,66.91
2022-10-11T12:50:24.740Z,67.97
2022-10-11T12:51:24.753Z,68.39
2022-10-11T12:52:24.704Z,68.70